createdAt,value
2022-09-03T00:00:26.247Z,19.10
2022-09-03T00:03:08.470Z,19.10
2022-09-03T00:05:47.655Z,19.10
2022-09-03T00:08:31.394Z,19.00
2022-09-03T00:11:10.957Z,19.00
2022-09-03T00:13:47.388Z,18.90
2022-09-03T00:16:21.602Z,18.90
2022-09-03T00:18:54.028Z,18.90
2022-09-03T00:21:35.291Z,18.90
2022-09-03T00:24:05.805Z,18.80
2022-09-03T00:26:35.593Z,18.70
2022-09-03T00:29:14.114Z,18.70
2022-09-03T00:32:00.984Z,18.70
2022-09-03T00:34:41.424Z,18.60
2022-09-03T00:37:12.391Z,18.60
2022-09-03T00:39:42.063Z,18.50
2022-09-03T00:42:47.116Z,18.50
2022-09-03T00:45:29.302Z,18.50
2022-09-03T00:48:28.013Z,18.40
2022-09-03T00:51:29.243Z,18.40
2022-09-03T00:54:27.047Z,18.30
2022-09-03T00:57:25.565Z,18.30
2022-09-03T01:00:14.668Z,18.30
2022-09-03T01:02:58.867Z,18.20
2022-09-03T01:05:43.606Z,18.20
2022-09-03T01:08:39.078Z,18.20
2022-09-03T01:11:26.722Z,18.10
2022-09-03T01:14:16.044Z,18.10
2022-09-03T01:16:45.624Z,18.10
2022-09-03T01:19:40.999Z,18.00
2022-09-03T01:22:41.460Z,18.00
2022-09-03T01:25:32.023Z,18.00
2022-09-03T01:28:20.405Z,18.00
2022-09-03T01:31:15.200Z,18.00
2022-09-03T01:33:56.143Z,18.00
2022-09-03T01:36:40.800Z,18.00
2022-09-03T01:39:17.289Z,18.00
2022-09-03T01:42:25.567Z,18.00
2022-09-03T01:45:12.646Z,18.00
2022-09-03T01:48:10.224Z,18.00
2022-09-03T01:51:00.227Z,18.00
2022-09-03T01:53:45.763Z,18.10
2022-09-03T01:56:28.964Z,18.10
2022-09-03T01:59:11.811Z,18.10
2022-09-03T02:02:21.705Z,18.10
2022-09-03T02:05:09.092Z,18.00
2022-09-03T02:07:47.571Z,18.00
2022-09-03T02:10:20.379Z,18.00
2022-09-03T02:12:52.308Z,17.90
2022-09-03T02:15:22.129Z,17.90
2022-09-03T02:17:53.984Z,17.80
2022-09-03T02:20:24.031Z,17.70
2022-09-03T02:22:52.187Z,17.70
2022-09-03T02:25:18.974Z,17.60
2022-09-03T02:27:48.167Z,17.60
2022-09-03T02:30:15.075Z,17.50
2022-09-03T02:32:41.819Z,17.50
2022-09-03T02:35:09.625Z,17.40
2022-09-03T02:37:36.393Z,17.40
2022-09-03T02:40:08.761Z,17.40
2022-09-03T02:42:36.507Z,17.30
2022-09-03T02:45:21.295Z,17.30
2022-09-03T02:47:52.706Z,17.30
2022-09-03T02:50:19.379Z,17.20
2022-09-03T02:52:45.971Z,17.20
2022-09-03T02:55:12.731Z,17.20
2022-09-03T02:57:39.402Z,17.10
2022-09-03T03:00:06.357Z,17.10
2022-09-03T03:02:33.138Z,17.10
2022-09-03T03:04:59.919Z,17.10
2022-09-03T03:07:28.795Z,17.10
2022-09-03T03:09:55.522Z,17.10
2022-09-03T03:12:22.290Z,17.10
2022-09-03T03:14:48.895Z,17.10
2022-09-03T03:17:15.612Z,17.10
2022-09-03T03:19:42.293Z,17.10
2022-09-03T03:22:08.993Z,17.10
2022-09-03T03:24:36.787Z,17.20
2022-09-03T03:27:06.218Z,17.20
2022-09-03T03:29:33.091Z,17.10
2022-09-03T03:32:00.348Z,17.10
2022-09-03T03:34:27.160Z,17.10
2022-09-03T03:36:53.813Z,17.10
2022-09-03T03:39:21.104Z,17.10
2022-09-03T03:41:47.797Z,17.00
2022-09-03T03:44:15.286Z,17.00
2022-09-03T03:46:42.122Z,17.00
2022-09-03T03:49:09.477Z,16.90
2022-09-03T03:51:37.210Z,17.00
2022-09-03T03:54:05.517Z,16.90
2022-09-03T03:56:32.939Z,16.90
2022-09-03T03:58:59.970Z,16.90
2022-09-03T04:01:27.753Z,16.90
2022-09-03T04:03:59.906Z,17.00
2022-09-03T04:06:27.215Z,16.90
2022-09-03T04:08:53.979Z,17.00
2022-09-03T04:11:23.161Z,17.00
2022-09-03T04:13:51.063Z,16.90
2022-09-03T04:16:20.714Z,16.90
2022-09-03T04:18:49.124Z,16.90
2022-09-03T04:21:19.065Z,16.90
2022-09-03T04:23:47.095Z,16.90
2022-09-03T04:26:19.344Z,16.80
2022-09-03T04:28:46.024Z,16.80
2022-09-03T04:31:15.983Z,16.70
2022-09-03T04:33:42.787Z,16.70
2022-09-03T04:36:09.504Z,16.70
2022-09-03T04:38:39.802Z,16.70
2022-09-03T04:41:10.920Z,16.70
2022-09-03T04:43:37.877Z,16.60
2022-09-03T04:46:10.874Z,16.70
2022-09-03T04:48:43.963Z,16.70
2022-09-03T04:51:16.178Z,16.70
2022-09-03T04:53:45.906Z,16.70
2022-09-03T04:56:21.364Z,16.70
2022-09-03T04:58:51.173Z,16.70
2022-09-03T05:01:20.278Z,16.70
2022-09-03T05:03:47.608Z,16.60
2022-09-03T05:06:17.091Z,16.60
2022-09-03T05:08:48.822Z,16.60
2022-09-03T05:11:17.670Z,16.60
2022-09-03T05:13:51.647Z,16.70
2022-09-03T05:16:19.372Z,16.70
2022-09-03T05:18:46.895Z,16.70
2022-09-03T05:21:16.056Z,16.60
2022-09-03T05:23:45.687Z,16.60
2022-09-03T05:26:16.975Z,16.60
2022-09-03T05:28:45.009Z,16.60
2022-09-03T05:31:14.334Z,16.60
2022-09-03T05:33:43.688Z,16.60
2022-09-03T05:36:13.044Z,16.60
2022-09-03T05:38:39.927Z,16.50
2022-09-03T05:41:08.984Z,16.50
2022-09-03T05:43:36.353Z,16.50
2022-09-03T05:46:11.821Z,16.50
2022-09-03T05:48:40.228Z,16.50
2022-09-03T05:51:17.424Z,16.50
2022-09-03T05:53:46.642Z,16.50
2022-09-03T05:56:25.280Z,16.50
2022-09-03T05:58:54.534Z,16.60
2022-09-03T06:01:26.871Z,16.60
2022-09-03T06:04:00.541Z,16.70
2022-09-03T06:06:29.133Z,16.70
2022-09-03T06:08:58.131Z,16.70
2022-09-03T06:11:29.606Z,16.80
2022-09-03T06:14:01.390Z,16.90
2022-09-03T06:16:30.586Z,16.90
2022-09-03T06:19:00.593Z,16.90
2022-09-03T06:21:27.772Z,17.00
2022-09-03T06:23:56.935Z,17.00
2022-09-03T06:26:28.134Z,17.00
2022-09-03T06:28:56.137Z,17.10
2022-09-03T06:31:23.436Z,17.20
2022-09-03T06:33:50.166Z,17.20
2022-09-03T06:36:18.079Z,17.30
2022-09-03T06:38:45.793Z,17.40
2022-09-03T06:41:24.834Z,17.40
2022-09-03T06:44:02.212Z,17.50
2022-09-03T06:46:30.830Z,17.60
2022-09-03T06:48:57.575Z,17.80
2022-09-03T06:51:26.880Z,17.80
2022-09-03T06:53:59.397Z,17.90
2022-09-03T06:56:26.998Z,18.00
2022-09-03T06:58:56.228Z,18.10
2022-09-03T07:01:25.688Z,18.20
2022-09-03T07:03:56.270Z,18.30
2022-09-03T07:06:24.915Z,18.40
2022-09-03T07:08:51.691Z,18.50
2022-09-03T07:11:22.418Z,18.60
2022-09-03T07:13:51.749Z,18.70
2022-09-03T07:16:21.624Z,18.80
2022-09-03T07:18:49.090Z,18.80
2022-09-03T07:21:20.951Z,18.90
2022-09-03T07:23:48.919Z,18.90
2022-09-03T07:26:19.804Z,19.00
2022-09-03T07:28:47.150Z,19.00
2022-09-03T07:31:18.509Z,19.10
2022-09-03T07:33:48.517Z,19.10
2022-09-03T07:36:16.986Z,19.20
2022-09-03T07:38:44.863Z,19.30
2022-09-03T07:41:13.240Z,19.30
2022-09-03T07:43:55.347Z,19.40
2022-09-03T07:46:25.137Z,19.40
2022-09-03T07:48:53.663Z,19.50
2022-09-03T07:51:24.016Z,19.60
2022-09-03T07:53:53.721Z,19.70
2022-09-03T07:56:20.950Z,19.80
2022-09-03T07:58:48.031Z,19.90
2022-09-03T08:01:17.092Z,20.00
2022-09-03T08:03:46.027Z,20.10
2022-09-03T08:06:14.010Z,20.20
2022-09-03T08:08:41.436Z,20.30
2022-09-03T08:11:10.913Z,20.40
2022-09-03T08:13:44.665Z,20.50
2022-09-03T08:16:13.213Z,20.50
2022-09-03T08:18:40.452Z,20.60
2022-09-03T08:21:09.980Z,20.70
2022-09-03T08:23:40.919Z,20.90
2022-09-03T08:26:08.517Z,21.00
2022-09-03T08:28:36.478Z,21.10
2022-09-03T08:31:13.781Z,21.20
2022-09-03T08:33:45.979Z,21.20
2022-09-03T08:36:17.914Z,21.30
2022-09-03T08:38:46.444Z,21.40
2022-09-03T08:41:20.761Z,21.50
2022-09-03T08:44:14.207Z,21.60
2022-09-03T08:46:48.464Z,21.60
2022-09-03T08:49:20.926Z,21.70
2022-09-03T08:51:48.968Z,21.70
2022-09-03T08:54:16.469Z,21.70
2022-09-03T08:56:43.422Z,21.70
2022-09-03T08:59:10.410Z,21.80
2022-09-03T09:02:01.287Z,21.80
2022-09-03T09:04:43.836Z,21.90
2022-09-03T09:07:17.413Z,22.00
2022-09-03T09:09:49.723Z,22.00
2022-09-03T09:12:51.629Z,22.10
2022-09-03T09:15:41.715Z,22.20
2022-09-03T09:18:32.375Z,22.20
2022-09-03T09:21:22.030Z,22.20
2022-09-03T09:23:51.471Z,22.30
2022-09-03T09:26:21.483Z,22.30
2022-09-03T09:28:57.656Z,22.40
2022-09-03T09:31:24.580Z,22.40
2022-09-03T09:33:52.394Z,22.50
2022-09-03T09:36:21.743Z,22.50
2022-09-03T09:38:48.788Z,22.60
2022-09-03T09:41:16.610Z,22.70
2022-09-03T09:43:45.311Z,22.70
2022-09-03T09:46:16.244Z,22.70
2022-09-03T09:49:01.516Z,22.80
2022-09-03T09:51:30.987Z,22.90
2022-09-03T09:54:13.090Z,23.00
2022-09-03T09:56:42.221Z,23.00
2022-09-03T09:59:11.253Z,23.10
2022-09-03T10:01:42.929Z,23.20
2022-09-03T10:04:25.706Z,23.30
2022-09-03T10:06:59.071Z,23.40
2022-09-03T10:09:30.894Z,23.60
2022-09-03T10:12:24.589Z,23.70
2022-09-03T10:15:03.612Z,23.80
2022-09-03T10:17:42.847Z,24.00
2022-09-03T10:20:27.534Z,24.10
